sensor_id;sensor_type;location;lat;lon;timestamp;P1;durP1;ratioP1;P2;durP2;ratioP2
34152;SDS011;20426;48.372;10.888;2024-03-07T00:00:25;8.80;;;5.90;;
34152;SDS011;20426;48.372;10.888;2024-03-07T00:00:56;11.13;;;6.20;;
34152;SDS011;20426;48.372;10.888;2024-03-07T00:01:27;11.05;;;6.47;;
34152;SDS011;20426;48.372;10.888;2024-03-07T00:01:57;12.77;;;7.28;;
34152;SDS011;20426;48.372;10.888;2024-03-07T00:02:28;10.88;;;7.13;;
34152;SDS011;20426;48.372;10.888;2024-03-07T00:02:59;10.32;;;6.82;;
34152;SDS011;20426;48.372;10.888;2024-03-07T00:03:30;7.82;;;5.25;;
34152;SDS011;20426;48.372;10.888;2024-03-07T00:04:01;10.63;;;6.57;;
34152;SDS011;20426;48.372;10.888;2024-03-07T00:04:32;10.98;;;6.45;;
34152;SDS011;20426;48.372;10.888;2024-03-07T00:05:02;10.02;;;6.60;;
34152;SDS011;20426;48.372;10.888;2024-03-07T00:05:33;9.48;;;6.20;;
34152;SDS011;20426;48.372;10.888;2024-03-07T00:06:04;10.45;;;6.30;;
34152;SDS011;20426;48.372;10.888;2024-03-07T00:06:35;9.73;;;6.28;;
34152;SDS011;20426;48.372;10.888;2024-03-07T00:07:05;9.27;;;5.88;;
34152;SDS011;20426;48.372;10.888;2024-03-07T00:07:37;10.90;;;6.72;;
34152;SDS011;20426;48.372;10.888;2024-03-07T00:08:08;10.65;;;6.13;;
34152;SDS011;20426;48.372;10.888;2024-03-07T00:08:40;11.65;;;6.05;;
34152;SDS011;20426;48.372;10.888;2024-03-07T00:09:10;11.65;;;6.70;;
34152;SDS011;20426;48.372;10.888;2024-03-07T00:09:41;14.05;;;6.95;;
34152;SDS011;20426;48.372;10.888;2024-03-07T00:10:12;9.90;;;6.30;;
34152;SDS011;20426;48.372;10.888;2024-03-07T00:10:45;10.65;;;6.07;;
34152;SDS011;20426;48.372;10.888;2024-03-07T00:11:16;9.70;;;6.32;;
34152;SDS011;20426;48.372;10.888;2024-03-07T00:11:47;10.20;;;5.90;;
34152;SDS011;20426;48.372;10.888;2024-03-07T00:12:18;11.43;;;6.72;;
34152;SDS011;20426;48.372;10.888;2024-03-07T00:12:48;11.23;;;5.93;;
34152;SDS011;20426;48.372;10.888;2024-03-07T00:13:19;8.60;;;6.28;;
34152;SDS011;20426;48.372;10.888;2024-03-07T00:13:51;11.75;;;6.18;;
34152;SDS011;20426;48.372;10.888;2024-03-07T00:14:21;10.82;;;6.65;;
34152;SDS011;20426;48.372;10.888;2024-03-07T00:14:56;10.23;;;6.13;;
34152;SDS011;20426;48.372;10.888;2024-03-07T00:15:27;8.20;;;5.78;;
34152;SDS011;20426;48.372;10.888;2024-03-07T00:16:00;14.20;;;7.45;;
34152;SDS011;20426;48.372;10.888;2024-03-07T00:16:32;10.00;;;6.30;;
34152;SDS011;20426;48.372;10.888;2024-03-07T00:17:03;8.88;;;6.22;;
34152;SDS011;20426;48.372;10.888;2024-03-07T00:17:34;9.77;;;6.28;;
34152;SDS011;20426;48.372;10.888;2024-03-07T00:18:05;9.57;;;6.43;;
34152;SDS011;20426;48.372;10.888;2024-03-07T00:18:36;10.90;;;6.38;;
34152;SDS011;20426;48.372;10.888;2024-03-07T00:19:07;11.00;;;7.00;;
34152;SDS011;20426;48.372;10.888;2024-03-07T00:19:37;9.85;;;6.80;;
34152;SDS011;20426;48.372;10.888;2024-03-07T00:20:09;12.82;;;6.78;;
34152;SDS011;20426;48.372;10.888;2024-03-07T00:20:44;12.70;;;7.43;;
34152;SDS011;20426;48.372;10.888;2024-03-07T00:21:15;11.75;;;6.40;;
34152;SDS011;20426;48.372;10.888;2024-03-07T00:21:45;14.43;;;6.88;;
34152;SDS011;20426;48.372;10.888;2024-03-07T00:22:16;10.43;;;6.70;;
34152;SDS011;20426;48.372;10.888;2024-03-07T00:22:47;10.15;;;6.57;;
34152;SDS011;20426;48.372;10.888;2024-03-07T00:23:18;10.27;;;6.88;;
34152;SDS011;20426;48.372;10.888;2024-03-07T00:23:48;9.93;;;6.30;;
34152;SDS011;20426;48.372;10.888;2024-03-07T00:24:19;13.07;;;7.25;;
34152;SDS011;20426;48.372;10.888;2024-03-07T00:24:50;10.77;;;6.90;;
34152;SDS011;20426;48.372;10.888;2024-03-07T00:25:21;11.48;;;7.00;;
34152;SDS011;20426;48.372;10.888;2024-03-07T00:25:52;12.07;;;6.75;;
34152;SDS011;20426;48.372;10.888;2024-03-07T00:26:23;11.35;;;7.57;;
34152;SDS011;20426;48.372;10.888;2024-03-07T00:26:53;9.15;;;6.18;;
34152;SDS011;20426;48.372;10.888;2024-03-07T00:27:24;10.05;;;6.15;;
34152;SDS011;20426;48.372;10.888;2024-03-07T00:27:56;11.77;;;6.50;;
34152;SDS011;20426;48.372;10.888;2024-03-07T00:28:32;8.93;;;5.95;;
34152;SDS011;20426;48.372;10.888;2024-03-07T00:29:09;12.65;;;6.95;;
34152;SDS011;20426;48.372;10.888;2024-03-07T00:29:40;9.98;;;6.65;;
34152;SDS011;20426;48.372;10.888;2024-03-07T00:30:11;14.25;;;7.85;;
34152;SDS011;20426;48.372;10.888;2024-03-07T00:30:48;10.57;;;7.10;;
34152;SDS011;20426;48.372;10.888;2024-03-07T00:31:18;9.55;;;6.35;;
34152;SDS011;20426;48.372;10.888;2024-03-07T00:31:49;11.57;;;6.82;;
34152;SDS011;20426;48.372;10.888;2024-03-07T00:32:20;12.68;;;7.53;;
34152;SDS011;20426;48.372;10.888;2024-03-07T00:32:51;12.50;;;7.05;;
34152;SDS011;20426;48.372;10.888;2024-03-07T00:33:21;10.38;;;6.82;;
34152;SDS011;20426;48.372;10.888;2024-03-07T00:33:52;12.32;;;6.97;;
34152;SDS011;20426;48.372;10.888;2024-03-07T00:34:23;12.45;;;6.63;;
34152;SDS011;20426;48.372;10.888;2024-03-07T00:34:53;11.30;;;7.03;;
34152;SDS011;20426;48.372;10.888;2024-03-07T00:35:24;11.07;;;6.78;;
34152;SDS011;20426;48.372;10.888;2024-03-07T00:35:55;14.35;;;7.68;;
34152;SDS011;20426;48.372;10.888;2024-03-07T00:36:25;10.20;;;6.65;;
34152;SDS011;20426;48.372;10.888;2024-03-07T00:36:56;12.45;;;6.88;;
34152;SDS011;20426;48.372;10.888;2024-03-07T00:37:29;12.32;;;6.47;;
34152;SDS011;20426;48.372;10.888;2024-03-07T00:38:00;11.50;;;7.55;;
34152;SDS011;20426;48.372;10.888;2024-03-07T00:38:31;10.70;;;5.95;;
34152;SDS011;20426;48.372;10.888;2024-03-07T00:39:02;12.40;;;7.30;;
34152;SDS011;20426;48.372;10.888;2024-03-07T00:39:33;11.75;;;6.82;;
34152;SDS011;20426;48.372;10.888;2024-03-07T00:40:03;9.13;;;6.05;;
34152;SDS011;20426;48.372;10.888;2024-03-07T00:40:34;10.38;;;6.30;;
34152;SDS011;20426;48.372;10.888;2024-03-07T00:41:05;11.07;;;6.05;;
34152;SDS011;20426;48.372;10.888;2024-03-07T00:41:36;11.35;;;7.10;;
34152;SDS011;20426;48.372;10.888;2024-03-07T00:42:08;12.07;;;7.32;;
34152;SDS011;20426;48.372;10.888;2024-03-07T00:42:39;14.68;;;7.03;;
34152;SDS011;20426;48.372;10.888;2024-03-07T00:43:10;10.43;;;6.45;;
34152;SDS011;20426;48.372;10.888;2024-03-07T00:43:41;12.18;;;7.35;;
34152;SDS011;20426;48.372;10.888;2024-03-07T00:44:11;10.57;;;6.90;;
34152;SDS011;20426;48.372;10.888;2024-03-07T00:44:42;10.38;;;6.88;;
34152;SDS011;20426;48.372;10.888;2024-03-07T00:45:13;11.80;;;6.93;;
34152;SDS011;20426;48.372;10.888;2024-03-07T00:45:44;11.13;;;6.53;;
34152;SDS011;20426;48.372;10.888;2024-03-07T00:46:14;10.65;;;6.75;;
34152;SDS011;20426;48.372;10.888;2024-03-07T00:46:46;15.65;;;7.53;;
34152;SDS011;20426;48.372;10.888;2024-03-07T00:47:17;11.23;;;7.40;;
34152;SDS011;20426;48.372;10.888;2024-03-07T00:47:48;11.68;;;6.88;;
34152;SDS011;20426;48.372;10.888;2024-03-07T00:48:18;12.52;;;6.68;;
34152;SDS011;20426;48.372;10.888;2024-03-07T00:48:49;11.82;;;6.57;;
34152;SDS011;20426;48.372;10.888;2024-03-07T00:49:20;13.60;;;6.78;;
34152;SDS011;20426;48.372;10.888;2024-03-07T00:49:50;11.82;;;7.03;;
34152;SDS011;20426;48.372;10.888;2024-03-07T00:50:21;14.98;;;7.35;;
34152;SDS011;20426;48.372;10.888;2024-03-07T00:50:52;10.77;;;6.65;;
34152;SDS011;20426;48.372;10.888;2024-03-07T00:51:22;14.35;;;7.60;;
34152;SDS011;20426;48.372;10.888;2024-03-07T00:51:53;10.80;;;6.38;;
34152;SDS011;20426;48.372;10.888;2024-03-07T00:52:24;12.23;;;7.47;;
34152;SDS011;20426;48.372;10.888;2024-03-07T00:52:55;11.40;;;6.80;;
34152;SDS011;20426;48.372;10.888;2024-03-07T00:53:26;12.43;;;7.50;;
34152;SDS011;20426;48.372;10.888;2024-03-07T00:53:57;9.98;;;5.15;;
34152;SDS011;20426;48.372;10.888;2024-03-07T00:54:28;11.15;;;6.95;;
34152;SDS011;20426;48.372;10.888;2024-03-07T00:54:58;11.18;;;7.43;;
34152;SDS011;20426;48.372;10.888;2024-03-07T00:55:29;14.35;;;7.57;;
34152;SDS011;20426;48.372;10.888;2024-03-07T00:56:00;13.02;;;7.53;;
34152;SDS011;20426;48.372;10.888;2024-03-07T00:56:32;11.45;;;6.57;;
34152;SDS011;20426;48.372;10.888;2024-03-07T00:57:03;14.70;;;7.65;;
34152;SDS011;20426;48.372;10.888;2024-03-07T00:57:34;13.55;;;7.30;;
34152;SDS011;20426;48.372;10.888;2024-03-07T00:58:05;12.55;;;6.78;;
34152;SDS011;20426;48.372;10.888;2024-03-07T00:58:36;12.57;;;7.53;;
34152;SDS011;20426;48.372;10.888;2024-03-07T00:59:07;12.77;;;7.40;;
34152;SDS011;20426;48.372;10.888;2024-03-07T00:59:38;13.63;;;6.82;;
34152;SDS011;20426;48.372;10.888;2024-03-07T01:00:08;10.85;;;7.20;;
34152;SDS011;20426;48.372;10.888;2024-03-07T01:00:43;12.85;;;7.32;;
34152;SDS011;20426;48.372;10.888;2024-03-07T01:01:14;10.82;;;6.60;;
34152;SDS011;20426;48.372;10.888;2024-03-07T01:01:45;13.25;;;7.28;;
34152;SDS011;20426;48.372;10.888;2024-03-07T01:02:16;12.07;;;6.43;;
34152;SDS011;20426;48.372;10.888;2024-03-07T01:02:49;13.52;;;7.53;;
34152;SDS011;20426;48.372;10.888;2024-03-07T01:03:23;12.07;;;7.22;;
34152;SDS011;20426;48.372;10.888;2024-03-07T01:03:54;13.65;;;7.55;;
34152;SDS011;20426;48.372;10.888;2024-03-07T01:04:25;12.00;;;6.63;;
34152;SDS011;20426;48.372;10.888;2024-03-07T01:05:01;11.32;;;7.10;;
34152;SDS011;20426;48.372;10.888;2024-03-07T01:05:31;12.95;;;7.38;;
34152;SDS011;20426;48.372;10.888;2024-03-07T01:06:02;11.57;;;6.78;;
34152;SDS011;20426;48.372;10.888;2024-03-07T01:06:34;12.07;;;7.05;;
34152;SDS011;20426;48.372;10.888;2024-03-07T01:07:06;14.00;;;7.30;;
34152;SDS011;20426;48.372;10.888;2024-03-07T01:07:37;11.88;;;7.32;;
34152;SDS011;20426;48.372;10.888;2024-03-07T01:08:08;12.95;;;7.15;;
34152;SDS011;20426;48.372;10.888;2024-03-07T01:08:38;11.30;;;6.75;;
34152;SDS011;20426;48.372;10.888;2024-03-07T01:09:09;14.20;;;8.45;;
34152;SDS011;20426;48.372;10.888;2024-03-07T01:09:44;13.57;;;8.05;;
34152;SDS011;20426;48.372;10.888;2024-03-07T01:10:15;10.80;;;6.97;;
34152;SDS011;20426;48.372;10.888;2024-03-07T01:10:46;12.75;;;7.22;;
34152;SDS011;20426;48.372;10.888;2024-03-07T01:11:18;14.05;;;8.23;;
34152;SDS011;20426;48.372;10.888;2024-03-07T01:11:49;11.93;;;7.53;;
34152;SDS011;20426;48.372;10.888;2024-03-07T01:12:20;15.05;;;7.40;;
34152;SDS011;20426;48.372;10.888;2024-03-07T01:12:54;14.18;;;8.45;;
34152;SDS011;20426;48.372;10.888;2024-03-07T01:13:27;13.48;;;7.28;;
34152;SDS011;20426;48.372;10.888;2024-03-07T01:14:00;11.48;;;7.35;;
34152;SDS011;20426;48.372;10.888;2024-03-07T01:14:30;11.55;;;7.15;;
34152;SDS011;20426;48.372;10.888;2024-03-07T01:15:02;12.90;;;7.45;;
34152;SDS011;20426;48.372;10.888;2024-03-07T01:15:36;13.82;;;7.63;;
34152;SDS011;20426;48.372;10.888;2024-03-07T01:16:07;15.57;;;8.13;;
34152;SDS011;20426;48.372;10.888;2024-03-07T01:16:38;13.38;;;7.75;;
34152;SDS011;20426;48.372;10.888;2024-03-07T01:17:08;10.55;;;6.80;;
34152;SDS011;20426;48.372;10.888;2024-03-07T01:17:39;16.63;;;7.82;;
34152;SDS011;20426;48.372;10.888;2024-03-07T01:18:10;11.00;;;7.13;;
34152;SDS011;20426;48.372;10.888;2024-03-07T01:18:40;15.30;;;7.60;;
34152;SDS011;20426;48.372;10.888;2024-03-07T01:19:11;11.20;;;7.57;;
34152;SDS011;20426;48.372;10.888;2024-03-07T01:19:42;9.50;;;6.70;;
34152;SDS011;20426;48.372;10.888;2024-03-07T01:20:13;12.77;;;7.05;;
34152;SDS011;20426;48.372;10.888;2024-03-07T01:20:44;15.18;;;8.00;;
34152;SDS011;20426;48.372;10.888;2024-03-07T01:21:16;12.90;;;7.65;;
34152;SDS011;20426;48.372;10.888;2024-03-07T01:21:47;12.05;;;7.25;;
34152;SDS011;20426;48.372;10.888;2024-03-07T01:22:18;14.93;;;7.55;;
34152;SDS011;20426;48.372;10.888;2024-03-07T01:22:49;11.85;;;7.53;;
34152;SDS011;20426;48.372;10.888;2024-03-07T01:23:21;11.10;;;7.72;;
34152;SDS011;20426;48.372;10.888;2024-03-07T01:23:52;14.52;;;8.18;;
34152;SDS011;20426;48.372;10.888;2024-03-07T01:24:23;15.43;;;7.47;;
34152;SDS011;20426;48.372;10.888;2024-03-07T01:24:54;15.05;;;7.82;;
34152;SDS011;20426;48.372;10.888;2024-03-07T01:25:24;12.40;;;6.82;;
34152;SDS011;20426;48.372;10.888;2024-03-07T01:25:55;11.40;;;7.13;;
34152;SDS011;20426;48.372;10.888;2024-03-07T01:26:27;13.05;;;7.70;;
34152;SDS011;20426;48.372;10.888;2024-03-07T01:26:58;11.95;;;7.30;;
34152;SDS011;20426;48.372;10.888;2024-03-07T01:27:29;11.50;;;7.22;;
34152;SDS011;20426;48.372;10.888;2024-03-07T01:28:00;14.18;;;7.60;;
34152;SDS011;20426;48.372;10.888;2024-03-07T01:28:31;12.30;;;7.45;;
34152;SDS011;20426;48.372;10.888;2024-03-07T01:29:02;15.98;;;7.55;;
34152;SDS011;20426;48.372;10.888;2024-03-07T01:29:32;12.50;;;7.95;;
34152;SDS011;20426;48.372;10.888;2024-03-07T01:30:04;11.82;;;6.97;;
34152;SDS011;20426;48.372;10.888;2024-03-07T01:30:38;12.18;;;7.13;;
34152;SDS011;20426;48.372;10.888;2024-03-07T01:31:08;11.90;;;7.43;;
34152;SDS011;20426;48.372;10.888;2024-03-07T01:31:40;12.75;;;7.22;;
34152;SDS011;20426;48.372;10.888;2024-03-07T01:32:11;12.93;;;7.55;;
34152;SDS011;20426;48.372;10.888;2024-03-07T01:32:42;12.18;;;6.90;;
34152;SDS011;20426;48.372;10.888;2024-03-07T01:33:13;13.52;;;7.47;;
34152;SDS011;20426;48.372;10.888;2024-03-07T01:33:43;11.43;;;6.95;;
34152;SDS011;20426;48.372;10.888;2024-03-07T01:34:14;15.02;;;8.15;;
34152;SDS011;20426;48.372;10.888;2024-03-07T01:34:45;13.90;;;7.68;;
34152;SDS011;20426;48.372;10.888;2024-03-07T01:35:15;14.45;;;7.22;;
34152;SDS011;20426;48.372;10.888;2024-03-07T01:35:46;13.68;;;7.15;;
34152;SDS011;20426;48.372;10.888;2024-03-07T01:36:18;12.80;;;7.30;;
34152;SDS011;20426;48.372;10.888;2024-03-07T01:36:50;13.15;;;7.30;;
34152;SDS011;20426;48.372;10.888;2024-03-07T01:37:21;12.07;;;6.90;;
34152;SDS011;20426;48.372;10.888;2024-03-07T01:37:51;12.68;;;7.07;;
34152;SDS011;20426;48.372;10.888;2024-03-07T01:38:22;10.52;;;6.57;;
34152;SDS011;20426;48.372;10.888;2024-03-07T01:38:53;12.82;;;8.05;;
34152;SDS011;20426;48.372;10.888;2024-03-07T01:39:23;10.57;;;6.68;;
34152;SDS011;20426;48.372;10.888;2024-03-07T01:39:54;12.20;;;6.22;;
34152;SDS011;20426;48.372;10.888;2024-03-07T01:40:25;9.70;;;6.60;;
34152;SDS011;20426;48.372;10.888;2024-03-07T01:40:55;13.40;;;7.25;;
34152;SDS011;20426;48.372;10.888;2024-03-07T01:41:26;12.88;;;7.75;;
34152;SDS011;20426;48.372;10.888;2024-03-07T01:41:57;11.77;;;7.00;;
34152;SDS011;20426;48.372;10.888;2024-03-07T01:42:27;14.77;;;8.10;;
34152;SDS011;20426;48.372;10.888;2024-03-07T01:42:58;11.07;;;7.13;;
34152;SDS011;20426;48.372;10.888;2024-03-07T01:43:29;13.93;;;7.93;;
34152;SDS011;20426;48.372;10.888;2024-03-07T01:44:01;11.82;;;7.20;;
34152;SDS011;20426;48.372;10.888;2024-03-07T01:44:32;11.50;;;7.82;;
34152;SDS011;20426;48.372;10.888;2024-03-07T01:45:02;14.50;;;7.45;;
34152;SDS011;20426;48.372;10.888;2024-03-07T01:45:33;12.88;;;7.57;;
34152;SDS011;20426;48.372;10.888;2024-03-07T01:46:06;13.40;;;7.35;;
34152;SDS011;20426;48.372;10.888;2024-03-07T01:46:38;11.05;;;6.65;;
34152;SDS011;20426;48.372;10.888;2024-03-07T01:47:09;13.82;;;7.32;;
34152;SDS011;20426;48.372;10.888;2024-03-07T01:47:40;11.30;;;6.93;;
34152;SDS011;20426;48.372;10.888;2024-03-07T01:48:11;14.85;;;7.80;;
34152;SDS011;20426;48.372;10.888;2024-03-07T01:48:49;13.43;;;6.88;;
34152;SDS011;20426;48.372;10.888;2024-03-07T01:49:20;11.60;;;6.78;;
34152;SDS011;20426;48.372;10.888;2024-03-07T01:49:52;11.98;;;7.38;;
34152;SDS011;20426;48.372;10.888;2024-03-07T01:50:22;13.00;;;6.95;;
34152;SDS011;20426;48.372;10.888;2024-03-07T01:50:57;13.43;;;7.70;;
34152;SDS011;20426;48.372;10.888;2024-03-07T01:51:29;10.80;;;6.93;;
34152;SDS011;20426;48.372;10.888;2024-03-07T01:51:59;13.65;;;7.65;;
34152;SDS011;20426;48.372;10.888;2024-03-07T01:52:31;14.75;;;7.35;;
34152;SDS011;20426;48.372;10.888;2024-03-07T01:53:02;14.75;;;7.93;;
34152;SDS011;20426;48.372;10.888;2024-03-07T01:53:33;13.55;;;7.40;;
34152;SDS011;20426;48.372;10.888;2024-03-07T01:54:06;12.27;;;7.25;;
34152;SDS011;20426;48.372;10.888;2024-03-07T01:54:39;12.43;;;7.10;;
34152;SDS011;20426;48.372;10.888;2024-03-07T01:55:10;15.27;;;7.78;;
34152;SDS011;20426;48.372;10.888;2024-03-07T01:55:43;12.57;;;7.53;;
34152;SDS011;20426;48.372;10.888;2024-03-07T01:56:14;14.25;;;7.30;;
34152;SDS011;20426;48.372;10.888;2024-03-07T01:56:46;10.40;;;7.32;;
34152;SDS011;20426;48.372;10.888;2024-03-07T01:57:16;10.40;;;6.72;;
34152;SDS011;20426;48.372;10.888;2024-03-07T01:57:49;13.75;;;7.40;;
34152;SDS011;20426;48.372;10.888;2024-03-07T01:58:20;11.32;;;6.45;;
34152;SDS011;20426;48.372;10.888;2024-03-07T01:58:51;12.32;;;6.72;;
34152;SDS011;20426;48.372;10.888;2024-03-07T01:59:25;11.93;;;7.38;;
34152;SDS011;20426;48.372;10.888;2024-03-07T01:59:57;14.75;;;7.43;;
34152;SDS011;20426;48.372;10.888;2024-03-07T02:00:27;11.07;;;6.97;;
34152;SDS011;20426;48.372;10.888;2024-03-07T02:00:58;10.32;;;6.70;;
34152;SDS011;20426;48.372;10.888;2024-03-07T02:01:29;11.40;;;6.55;;
34152;SDS011;20426;48.372;10.888;2024-03-07T02:02:00;13.00;;;7.32;;
34152;SDS011;20426;48.372;10.888;2024-03-07T02:02:32;12.70;;;8.02;;
34152;SDS011;20426;48.372;10.888;2024-03-07T02:03:04;10.80;;;7.53;;
34152;SDS011;20426;48.372;10.888;2024-03-07T02:03:37;12.98;;;7.22;;
34152;SDS011;20426;48.372;10.888;2024-03-07T02:04:07;16.90;;;7.57;;
34152;SDS011;20426;48.372;10.888;2024-03-07T02:04:38;9.95;;;6.60;;
34152;SDS011;20426;48.372;10.888;2024-03-07T02:05:09;12.60;;;7.20;;
34152;SDS011;20426;48.372;10.888;2024-03-07T02:05:40;11.88;;;7.22;;
34152;SDS011;20426;48.372;10.888;2024-03-07T02:06:11;13.05;;;7.50;;
34152;SDS011;20426;48.372;10.888;2024-03-07T02:06:42;11.90;;;6.70;;
34152;SDS011;20426;48.372;10.888;2024-03-07T02:07:13;12.05;;;6.75;;
34152;SDS011;20426;48.372;10.888;2024-03-07T02:07:43;12.55;;;7.20;;
34152;SDS011;20426;48.372;10.888;2024-03-07T02:08:14;10.88;;;6.93;;
34152;SDS011;20426;48.372;10.888;2024-03-07T02:08:45;13.52;;;7.25;;
34152;SDS011;20426;48.372;10.888;2024-03-07T02:09:16;13.80;;;7.70;;
34152;SDS011;20426;48.372;10.888;2024-03-07T02:09:47;11.15;;;7.00;;
34152;SDS011;20426;48.372;10.888;2024-03-07T02:10:18;11.77;;;7.30;;
34152;SDS011;20426;48.372;10.888;2024-03-07T02:10:48;10.20;;;6.90;;
34152;SDS011;20426;48.372;10.888;2024-03-07T02:11:19;11.48;;;6.85;;
34152;SDS011;20426;48.372;10.888;2024-03-07T02:11:51;12.68;;;7.28;;
34152;SDS011;20426;48.372;10.888;2024-03-07T02:12:21;12.00;;;6.85;;
34152;SDS011;20426;48.372;10.888;2024-03-07T02:12:54;13.35;;;7.05;;
34152;SDS011;20426;48.372;10.888;2024-03-07T02:13:25;15.07;;;7.75;;
34152;SDS011;20426;48.372;10.888;2024-03-07T02:13:56;11.73;;;6.90;;
34152;SDS011;20426;48.372;10.888;2024-03-07T02:14:26;13.15;;;7.55;;
34152;SDS011;20426;48.372;10.888;2024-03-07T02:14:58;10.38;;;6.63;;
34152;SDS011;20426;48.372;10.888;2024-03-07T02:15:29;9.52;;;6.15;;
34152;SDS011;20426;48.372;10.888;2024-03-07T02:15:59;13.52;;;8.15;;
34152;SDS011;20426;48.372;10.888;2024-03-07T02:16:30;13.73;;;7.32;;
34152;SDS011;20426;48.372;10.888;2024-03-07T02:17:01;12.82;;;6.75;;
34152;SDS011;20426;48.372;10.888;2024-03-07T02:17:32;13.25;;;7.85;;
34152;SDS011;20426;48.372;10.888;2024-03-07T02:18:04;13.98;;;8.00;;
34152;SDS011;20426;48.372;10.888;2024-03-07T02:18:35;11.73;;;7.35;;
34152;SDS011;20426;48.372;10.888;2024-03-07T02:19:08;11.98;;;8.30;;
34152;SDS011;20426;48.372;10.888;2024-03-07T02:19:43;11.90;;;7.60;;
34152;SDS011;20426;48.372;10.888;2024-03-07T02:20:14;12.60;;;7.43;;
34152;SDS011;20426;48.372;10.888;2024-03-07T02:20:46;14.00;;;8.30;;
34152;SDS011;20426;48.372;10.888;2024-03-07T02:21:17;11.57;;;7.82;;
34152;SDS011;20426;48.372;10.888;2024-03-07T02:21:47;13.10;;;7.63;;
34152;SDS011;20426;48.372;10.888;2024-03-07T02:22:18;11.18;;;6.88;;
34152;SDS011;20426;48.372;10.888;2024-03-07T02:22:49;14.85;;;8.18;;
34152;SDS011;20426;48.372;10.888;2024-03-07T02:23:20;14.50;;;8.18;;
34152;SDS011;20426;48.372;10.888;2024-03-07T02:23:51;15.77;;;8.10;;
34152;SDS011;20426;48.372;10.888;2024-03-07T02:24:23;15.00;;;8.52;;
34152;SDS011;20426;48.372;10.888;2024-03-07T02:24:53;16.08;;;8.73;;
34152;SDS011;20426;48.372;10.888;2024-03-07T02:25:24;14.00;;;8.32;;
34152;SDS011;20426;48.372;10.888;2024-03-07T02:25:55;16.02;;;8.70;;
34152;SDS011;20426;48.372;10.888;2024-03-07T02:26:25;14.70;;;8.60;;
34152;SDS011;20426;48.372;10.888;2024-03-07T02:26:57;13.75;;;8.43;;
34152;SDS011;20426;48.372;10.888;2024-03-07T02:27:29;14.43;;;8.20;;
34152;SDS011;20426;48.372;10.888;2024-03-07T02:28:00;13.80;;;7.80;;
34152;SDS011;20426;48.372;10.888;2024-03-07T02:28:30;13.20;;;8.18;;
34152;SDS011;20426;48.372;10.888;2024-03-07T02:29:01;16.77;;;9.18;;
34152;SDS011;20426;48.372;10.888;2024-03-07T02:29:33;13.75;;;8.43;;
34152;SDS011;20426;48.372;10.888;2024-03-07T02:30:04;15.55;;;8.70;;
34152;SDS011;20426;48.372;10.888;2024-03-07T02:30:38;15.52;;;8.05;;
34152;SDS011;20426;48.372;10.888;2024-03-07T02:31:09;12.85;;;8.32;;
34152;SDS011;20426;48.372;10.888;2024-03-07T02:31:39;15.02;;;8.10;;
34152;SDS011;20426;48.372;10.888;2024-03-07T02:32:11;13.02;;;8.30;;
34152;SDS011;20426;48.372;10.888;2024-03-07T02:32:42;15.05;;;8.15;;
34152;SDS011;20426;48.372;10.888;2024-03-07T02:33:14;15.05;;;8.82;;
34152;SDS011;20426;48.372;10.888;2024-03-07T02:33:45;13.90;;;8.05;;
34152;SDS011;20426;48.372;10.888;2024-03-07T02:34:16;17.50;;;8.73;;
34152;SDS011;20426;48.372;10.888;2024-03-07T02:34:47;15.68;;;8.43;;
34152;SDS011;20426;48.372;10.888;2024-03-07T02:35:18;15.25;;;8.35;;
34152;SDS011;20426;48.372;10.888;2024-03-07T02:35:49;17.38;;;9.27;;
34152;SDS011;20426;48.372;10.888;2024-03-07T02:36:20;12.85;;;8.60;;
34152;SDS011;20426;48.372;10.888;2024-03-07T02:36:50;14.43;;;9.07;;
34152;SDS011;20426;48.372;10.888;2024-03-07T02:37:21;15.48;;;9.10;;
34152;SDS011;20426;48.372;10.888;2024-03-07T02:37:52;13.45;;;8.23;;
34152;SDS011;20426;48.372;10.888;2024-03-07T02:38:22;14.15;;;9.23;;
34152;SDS011;20426;48.372;10.888;2024-03-07T02:38:53;14.93;;;8.98;;
34152;SDS011;20426;48.372;10.888;2024-03-07T02:39:24;17.48;;;9.07;;
34152;SDS011;20426;48.372;10.888;2024-03-07T02:39:55;14.15;;;8.00;;
34152;SDS011;20426;48.372;10.888;2024-03-07T02:40:25;16.00;;;9.60;;
34152;SDS011;20426;48.372;10.888;2024-03-07T02:40:56;15.93;;;9.07;;
34152;SDS011;20426;48.372;10.888;2024-03-07T02:41:28;13.20;;;8.50;;
34152;SDS011;20426;48.372;10.888;2024-03-07T02:41:59;14.50;;;8.43;;
34152;SDS011;20426;48.372;10.888;2024-03-07T02:42:29;17.25;;;9.68;;
34152;SDS011;20426;48.372;10.888;2024-03-07T02:43:00;15.70;;;9.02;;
34152;SDS011;20426;48.372;10.888;2024-03-07T02:43:34;13.15;;;8.52;;
34152;SDS011;20426;48.372;10.888;2024-03-07T02:44:08;12.20;;;8.38;;
34152;SDS011;20426;48.372;10.888;2024-03-07T02:44:39;11.35;;;8.40;;
34152;SDS011;20426;48.372;10.888;2024-03-07T02:45:10;14.63;;;8.70;;
34152;SDS011;20426;48.372;10.888;2024-03-07T02:45:44;12.63;;;7.78;;
34152;SDS011;20426;48.372;10.888;2024-03-07T02:46:15;13.88;;;8.82;;
34152;SDS011;20426;48.372;10.888;2024-03-07T02:46:46;16.73;;;9.15;;
34152;SDS011;20426;48.372;10.888;2024-03-07T02:47:17;16.17;;;8.98;;
34152;SDS011;20426;48.372;10.888;2024-03-07T02:47:47;14.00;;;8.52;;
34152;SDS011;20426;48.372;10.888;2024-03-07T02:48:18;14.38;;;8.85;;
34152;SDS011;20426;48.372;10.888;2024-03-07T02:48:49;18.05;;;8.95;;
34152;SDS011;20426;48.372;10.888;2024-03-07T02:49:20;14.68;;;8.57;;
34152;SDS011;20426;48.372;10.888;2024-03-07T02:49:51;19.15;;;9.23;;
34152;SDS011;20426;48.372;10.888;2024-03-07T02:50:22;14.63;;;8.85;;
34152;SDS011;20426;48.372;10.888;2024-03-07T02:50:52;14.45;;;8.57;;
34152;SDS011;20426;48.372;10.888;2024-03-07T02:51:23;14.18;;;8.65;;
34152;SDS011;20426;48.372;10.888;2024-03-07T02:51:54;14.80;;;9.23;;
34152;SDS011;20426;48.372;10.888;2024-03-07T02:52:25;17.02;;;9.45;;
34152;SDS011;20426;48.372;10.888;2024-03-07T02:52:55;15.48;;;9.05;;
34152;SDS011;20426;48.372;10.888;2024-03-07T02:53:26;14.10;;;8.90;;
34152;SDS011;20426;48.372;10.888;2024-03-07T02:53:57;14.73;;;8.80;;
34152;SDS011;20426;48.372;10.888;2024-03-07T02:54:28;14.95;;;8.70;;
34152;SDS011;20426;48.372;10.888;2024-03-07T02:54:58;15.05;;;8.55;;
34152;SDS011;20426;48.372;10.888;2024-03-07T02:55:29;17.02;;;9.32;;
34152;SDS011;20426;48.372;10.888;2024-03-07T02:56:00;14.60;;;8.80;;
34152;SDS011;20426;48.372;10.888;2024-03-07T02:56:31;17.88;;;8.95;;
34152;SDS011;20426;48.372;10.888;2024-03-07T02:57:01;15.43;;;9.10;;
34152;SDS011;20426;48.372;10.888;2024-03-07T02:57:32;15.25;;;8.93;;
34152;SDS011;20426;48.372;10.888;2024-03-07T02:58:03;16.70;;;8.98;;
34152;SDS011;20426;48.372;10.888;2024-03-07T02:58:34;15.25;;;8.88;;
34152;SDS011;20426;48.372;10.888;2024-03-07T02:59:05;17.67;;;9.63;;
34152;SDS011;20426;48.372;10.888;2024-03-07T02:59:36;14.07;;;9.00;;
34152;SDS011;20426;48.372;10.888;2024-03-07T03:00:07;18.48;;;9.35;;
34152;SDS011;20426;48.372;10.888;2024-03-07T03:00:58;14.98;;;9.40;;
34152;SDS011;20426;48.372;10.888;2024-03-07T03:01:33;16.27;;;9.40;;
34152;SDS011;20426;48.372;10.888;2024-03-07T03:02:04;19.77;;;9.27;;
34152;SDS011;20426;48.372;10.888;2024-03-07T03:02:35;16.08;;;8.85;;
34152;SDS011;20426;48.372;10.888;2024-03-07T03:03:06;19.20;;;9.50;;
34152;SDS011;20426;48.372;10.888;2024-03-07T03:03:37;14.18;;;9.07;;